createdAt,value
2023-08-07T00:02:26.854Z,13.90
2023-08-07T00:04:53.876Z,12.00
2023-08-07T00:07:20.829Z,12.00
2023-08-07T00:09:47.793Z,12.80
2023-08-07T00:12:14.752Z,12.00
2023-08-07T00:14:41.846Z,13.80
2023-08-07T00:17:09.634Z,12.80
2023-08-07T00:19:36.690Z,12.00
2023-08-07T00:22:03.741Z,12.00
2023-08-07T00:24:30.656Z,11.90
2023-08-07T00:26:57.974Z,11.90
2023-08-07T00:29:25.125Z,14.70
2023-08-07T00:31:52.131Z,15.50
2023-08-07T00:34:19.192Z,12.00
2023-08-07T00:36:46.292Z,12.00
2023-08-07T00:39:13.240Z,13.30
2023-08-07T00:41:40.741Z,14.40
2023-08-07T00:44:07.771Z,12.00
2023-08-07T00:46:35.631Z,12.00
2023-08-07T00:49:03.918Z,13.70
2023-08-07T00:51:30.900Z,14.10
2023-08-07T00:53:57.846Z,11.90
2023-08-07T00:56:24.856Z,11.80
2023-08-07T00:58:52.332Z,11.90
2023-08-07T01:01:19.322Z,11.90
2023-08-07T01:03:46.786Z,12.00
2023-08-07T01:06:14.406Z,11.80
2023-08-07T01:08:41.277Z,11.80
2023-08-07T01:11:29.617Z,14.50
2023-08-07T01:14:08.494Z,11.80
2023-08-07T01:16:59.304Z,11.80
2023-08-07T01:19:29.767Z,11.80
2023-08-07T01:22:09.908Z,13.90
2023-08-07T01:24:39.230Z,14.30
2023-08-07T01:27:18.052Z,11.80
2023-08-07T01:30:03.766Z,11.80
2023-08-07T01:32:37.018Z,11.80
2023-08-07T01:35:04.358Z,14.10
2023-08-07T01:37:32.549Z,11.70
2023-08-07T01:40:01.409Z,13.70
2023-08-07T01:42:28.600Z,14.00
2023-08-07T01:44:55.617Z,12.80
2023-08-07T01:47:22.625Z,13.70
2023-08-07T01:49:49.586Z,11.80
2023-08-07T01:52:16.498Z,11.80
2023-08-07T01:54:43.432Z,14.00
2023-08-07T01:57:10.485Z,14.60
2023-08-07T01:59:37.609Z,11.70
2023-08-07T02:02:05.174Z,11.70
2023-08-07T02:04:32.427Z,11.70
2023-08-07T02:06:59.338Z,11.70
2023-08-07T02:09:26.277Z,13.10
2023-08-07T02:11:53.212Z,11.90
2023-08-07T02:14:20.230Z,11.70
2023-08-07T02:16:47.505Z,13.70
2023-08-07T02:19:14.440Z,13.00
2023-08-07T02:21:41.375Z,13.90
2023-08-07T02:24:08.284Z,11.60
2023-08-07T02:26:35.175Z,11.50
2023-08-07T02:29:03.963Z,11.50
2023-08-07T02:31:32.982Z,11.50
2023-08-07T02:33:59.929Z,12.40
2023-08-07T02:36:26.865Z,11.50
2023-08-07T02:38:53.974Z,11.50
2023-08-07T02:41:21.916Z,14.00
2023-08-07T02:43:48.771Z,13.50
2023-08-07T02:46:15.779Z,14.50
2023-08-07T02:48:44.967Z,11.70
2023-08-07T02:51:11.894Z,13.10
2023-08-07T02:53:38.824Z,11.60
2023-08-07T02:56:05.848Z,13.90
2023-08-07T02:58:32.777Z,13.40
2023-08-07T03:01:07.599Z,12.80
2023-08-07T03:03:34.578Z,12.90
2023-08-07T03:06:01.564Z,12.00
2023-08-07T03:08:28.490Z,12.10
2023-08-07T03:10:57.001Z,14.30
2023-08-07T03:13:28.303Z,12.70
2023-08-07T03:16:02.189Z,13.80
2023-08-07T03:18:29.734Z,11.90
2023-08-07T03:20:59.878Z,11.50
2023-08-07T03:23:28.766Z,11.50
2023-08-07T03:28:42.149Z,13.80
2023-08-07T03:31:09.494Z,13.50
2023-08-07T03:33:37.802Z,13.40
2023-08-07T03:36:05.400Z,11.60
2023-08-07T03:38:33.591Z,11.50
2023-08-07T03:41:00.865Z,13.70
2023-08-07T03:43:29.555Z,14.20
2023-08-07T03:46:02.960Z,12.30
2023-08-07T03:48:31.958Z,11.50
2023-08-07T03:51:06.988Z,11.50
2023-08-07T03:53:38.758Z,12.80
2023-08-07T03:56:06.152Z,11.50
2023-08-07T03:58:34.305Z,11.50
2023-08-07T04:01:01.395Z,11.50
2023-08-07T04:03:28.415Z,14.40
2023-08-07T04:05:55.869Z,11.50
2023-08-07T04:08:23.562Z,13.90
2023-08-07T04:11:03.957Z,11.50
2023-08-07T04:13:31.897Z,11.50
2023-08-07T04:15:59.329Z,13.50
2023-08-07T04:18:26.968Z,12.70
2023-08-07T04:20:54.831Z,11.50
2023-08-07T04:23:22.443Z,12.60
2023-08-07T04:25:49.627Z,11.90
2023-08-07T04:28:17.234Z,14.30
2023-08-07T04:30:44.839Z,13.40
2023-08-07T04:33:11.927Z,13.50
2023-08-07T04:35:38.828Z,12.80
2023-08-07T04:38:05.782Z,11.50
2023-08-07T04:40:33.156Z,14.00
2023-08-07T04:43:00.048Z,13.60
2023-08-07T04:45:26.983Z,12.30
2023-08-07T04:47:54.034Z,11.50
2023-08-07T04:50:20.992Z,11.60
2023-08-07T04:52:47.964Z,14.10
2023-08-07T04:55:14.982Z,11.50
2023-08-07T04:57:42.168Z,11.50
2023-08-07T05:00:09.743Z,11.50
2023-08-07T05:02:36.815Z,11.50
2023-08-07T05:05:03.942Z,11.50
2023-08-07T05:07:30.889Z,11.60
2023-08-07T05:10:00.688Z,13.90
2023-08-07T05:12:27.698Z,11.60
2023-08-07T05:14:54.742Z,11.60
2023-08-07T05:17:21.764Z,11.60
2023-08-07T05:19:48.731Z,11.60
2023-08-07T05:22:16.309Z,13.10
2023-08-07T05:24:44.856Z,13.30
2023-08-07T05:27:12.217Z,12.80
2023-08-07T05:29:44.969Z,11.70
2023-08-07T05:32:15.766Z,13.00
2023-08-07T05:34:45.247Z,14.40
2023-08-07T05:37:12.188Z,11.70
2023-08-07T05:39:39.126Z,13.10
2023-08-07T05:42:06.390Z,13.30
2023-08-07T05:44:33.347Z,11.70
2023-08-07T05:47:00.295Z,14.50
2023-08-07T05:49:27.304Z,11.80
2023-08-07T05:51:55.142Z,11.80
2023-08-07T05:54:22.424Z,11.80
2023-08-07T05:56:49.327Z,12.40
2023-08-07T05:59:17.032Z,14.00
2023-08-07T06:01:44.027Z,14.20
2023-08-07T06:04:11.194Z,14.30
2023-08-07T06:06:40.438Z,11.80
2023-08-07T06:09:07.769Z,11.80
2023-08-07T06:11:34.943Z,11.90
2023-08-07T06:14:02.102Z,11.90
2023-08-07T06:16:29.226Z,11.90
2023-08-07T06:18:56.249Z,11.30
2023-08-07T06:21:23.281Z,14.30
2023-08-07T06:23:50.515Z,12.00
2023-08-07T06:26:17.439Z,12.00
2023-08-07T06:28:44.553Z,14.90
2023-08-07T06:31:12.731Z,13.80
2023-08-07T06:33:39.910Z,14.50
2023-08-07T06:36:07.943Z,12.20
2023-08-07T06:38:35.051Z,13.30
2023-08-07T06:41:02.194Z,12.30
2023-08-07T06:43:29.343Z,15.30
2023-08-07T06:45:57.074Z,12.40
2023-08-07T06:48:24.198Z,13.80
2023-08-07T06:50:51.451Z,15.10
2023-08-07T06:53:18.393Z,12.60
2023-08-07T06:55:45.720Z,14.70
2023-08-07T06:58:12.642Z,13.60
2023-08-07T07:00:39.630Z,12.90
2023-08-07T07:03:07.249Z,13.00
2023-08-07T07:05:34.187Z,13.20
2023-08-07T07:08:01.178Z,13.20
2023-08-07T07:10:28.099Z,13.30
2023-08-07T07:12:55.055Z,14.50
2023-08-07T07:15:21.991Z,13.40
2023-08-07T07:17:49.055Z,13.40
2023-08-07T07:20:16.115Z,13.50
2023-08-07T07:22:43.172Z,12.70
2023-08-07T07:25:10.576Z,13.50
2023-08-07T07:27:37.491Z,13.60
2023-08-07T07:30:04.862Z,13.70
2023-08-07T07:32:31.829Z,13.70
2023-08-07T07:34:59.170Z,13.90
2023-08-07T07:37:26.157Z,13.60
2023-08-07T07:39:53.234Z,13.60
2023-08-07T07:42:20.110Z,13.60
2023-08-07T07:44:47.167Z,13.60
2023-08-07T07:47:14.397Z,13.60
2023-08-07T07:49:46.637Z,15.20
2023-08-07T07:52:13.559Z,13.70
2023-08-07T07:54:42.514Z,14.80
2023-08-07T07:57:09.513Z,13.80
2023-08-07T07:59:36.395Z,13.90
2023-08-07T08:02:03.308Z,13.90
2023-08-07T08:04:30.399Z,13.90
2023-08-07T08:06:57.471Z,14.00
2023-08-07T08:09:24.430Z,14.00
2023-08-07T08:11:51.379Z,13.90
2023-08-07T08:14:18.478Z,13.90
2023-08-07T08:16:45.468Z,13.80
2023-08-07T08:19:12.397Z,16.00
2023-08-07T08:21:40.589Z,16.20
2023-08-07T08:24:08.849Z,13.90
2023-08-07T08:26:35.792Z,15.90
2023-08-07T08:29:02.788Z,15.00
2023-08-07T08:31:29.734Z,15.50
2023-08-07T08:33:56.871Z,14.20
2023-08-07T08:36:23.856Z,15.30
2023-08-07T08:38:52.778Z,15.00
2023-08-07T08:41:19.810Z,16.80
2023-08-07T08:43:47.874Z,15.40
2023-08-07T08:46:16.137Z,15.50
2023-08-07T08:48:43.397Z,14.70
2023-08-07T08:51:12.391Z,14.70
2023-08-07T08:53:39.401Z,14.80
2023-08-07T08:56:06.503Z,14.80
2023-08-07T08:58:33.538Z,14.90
2023-08-07T09:01:00.552Z,14.90
2023-08-07T09:03:27.610Z,14.90
2023-08-07T09:05:55.532Z,17.30
2023-08-07T09:08:23.814Z,14.80
2023-08-07T09:10:50.793Z,17.40
2023-08-07T09:13:17.702Z,14.60
2023-08-07T09:15:48.941Z,16.10
2023-08-07T09:18:16.080Z,15.10
2023-08-07T09:20:43.674Z,14.70
2023-08-07T09:23:10.983Z,14.70
2023-08-07T09:25:38.257Z,14.80
2023-08-07T09:28:08.741Z,14.90
2023-08-07T09:30:36.767Z,15.00
2023-08-07T09:33:04.397Z,15.10
2023-08-07T09:35:35.076Z,15.30
2023-08-07T09:38:02.552Z,15.30
2023-08-07T09:40:30.151Z,15.40
2023-08-07T09:42:57.551Z,15.50
2023-08-07T09:45:28.588Z,15.60
2023-08-07T09:48:00.097Z,15.80
2023-08-07T09:50:28.233Z,15.90
2023-08-07T09:52:56.991Z,16.00
2023-08-07T09:55:24.254Z,16.00
2023-08-07T09:57:51.584Z,15.90
2023-08-07T10:00:21.469Z,16.20
2023-08-07T10:02:52.636Z,15.90
2023-08-07T10:05:20.320Z,16.00
2023-08-07T10:07:48.603Z,16.20
2023-08-07T10:10:16.148Z,16.40
2023-08-07T10:12:43.703Z,16.60
2023-08-07T10:15:11.245Z,17.10
2023-08-07T10:17:38.787Z,17.20
2023-08-07T10:20:06.641Z,17.50
2023-08-07T10:22:33.890Z,17.70
2023-08-07T10:25:02.836Z,17.90
2023-08-07T10:27:32.308Z,17.90
2023-08-07T10:30:02.016Z,17.90
2023-08-07T10:32:29.768Z,17.80
2023-08-07T10:34:57.118Z,17.70
2023-08-07T10:37:39.452Z,17.80
2023-08-07T10:40:07.074Z,17.90
2023-08-07T10:42:56.628Z,18.00
2023-08-07T10:45:24.301Z,18.10
2023-08-07T10:48:12.006Z,18.20
2023-08-07T10:50:55.172Z,18.50
2023-08-07T10:53:29.685Z,18.60
2023-08-07T10:55:59.692Z,18.80
2023-08-07T10:58:28.219Z,18.80
2023-08-07T11:01:21.344Z,18.80
2023-08-07T11:03:59.460Z,18.70
2023-08-07T11:06:29.352Z,18.40
2023-08-07T11:08:56.484Z,18.20
2023-08-07T11:11:23.648Z,18.10
2023-08-07T11:13:50.884Z,18.10
2023-08-07T11:16:19.205Z,18.30
2023-08-07T11:18:46.760Z,18.50
2023-08-07T11:21:13.779Z,18.40
2023-08-07T11:23:41.571Z,18.40
2023-08-07T11:26:10.673Z,18.30
2023-08-07T11:28:38.133Z,18.20
2023-08-07T11:31:05.942Z,18.20
2023-08-07T11:33:33.043Z,18.30
2023-08-07T11:36:00.049Z,18.60
2023-08-07T11:38:41.149Z,18.80
2023-08-07T11:41:08.662Z,18.90
2023-08-07T11:43:36.303Z,19.10
2023-08-07T11:46:05.848Z,19.30
2023-08-07T11:48:34.500Z,19.50
2023-08-07T11:51:02.295Z,19.70
2023-08-07T11:53:31.451Z,19.70
2023-08-07T11:55:59.886Z,19.90
2023-08-07T11:58:29.062Z,20.10
2023-08-07T12:00:56.941Z,20.10
2023-08-07T12:03:35.543Z,20.00
2023-08-07T12:06:04.559Z,19.90
2023-08-07T12:08:35.301Z,19.70
2023-08-07T12:11:04.389Z,19.50
2023-08-07T12:13:32.771Z,19.20
2023-08-07T12:15:59.875Z,19.00
2023-08-07T12:18:28.513Z,18.90
2023-08-07T12:20:59.659Z,18.90
2023-08-07T12:23:27.058Z,18.60
2023-08-07T12:25:54.612Z,18.40
2023-08-07T12:28:21.719Z,18.20
2023-08-07T12:30:49.089Z,18.30
2023-08-07T12:33:16.759Z,18.40
2023-08-07T12:35:44.732Z,18.60
2023-08-07T12:38:14.949Z,18.80
2023-08-07T12:40:44.307Z,19.00
2023-08-07T12:43:11.868Z,19.30
2023-08-07T12:48:09.331Z,19.50
2023-08-07T12:50:36.841Z,19.40
2023-08-07T12:53:04.836Z,19.30
2023-08-07T12:55:32.738Z,19.30
2023-08-07T12:57:59.835Z,19.30
2023-08-07T13:00:27.949Z,19.30
2023-08-07T13:02:56.617Z,19.40
2023-08-07T13:05:24.330Z,20.00
2023-08-07T13:07:55.347Z,19.90
2023-08-07T13:10:23.451Z,20.20
2023-08-07T13:12:50.956Z,20.50
2023-08-07T13:15:18.991Z,20.80
2023-08-07T13:17:47.102Z,21.00
2023-08-07T13:20:15.139Z,21.10
2023-08-07T13:22:43.608Z,21.10
2023-08-07T13:25:11.709Z,20.90
2023-08-07T13:27:38.830Z,20.80
2023-08-07T13:30:06.566Z,20.90
2023-08-07T13:32:33.676Z,21.00
2023-08-07T13:35:00.750Z,21.20
2023-08-07T13:37:27.852Z,22.20
2023-08-07T13:39:55.520Z,21.40
2023-08-07T13:42:25.351Z,21.30
2023-08-07T13:44:54.428Z,21.00
2023-08-07T13:47:21.873Z,20.70
2023-08-07T13:49:49.128Z,20.30
2023-08-07T13:52:16.450Z,19.90
2023-08-07T13:54:43.503Z,19.50
2023-08-07T13:57:10.547Z,19.10
2023-08-07T13:59:37.538Z,18.80
2023-08-07T14:02:04.570Z,18.40
2023-08-07T14:04:31.534Z,18.10
2023-08-07T14:06:59.361Z,17.90
2023-08-07T14:09:26.671Z,17.70
2023-08-07T14:11:53.690Z,17.70
2023-08-07T14:14:20.699Z,17.60
2023-08-07T14:16:47.754Z,17.60
2023-08-07T14:19:14.719Z,17.60
2023-08-07T14:21:41.698Z,17.60
2023-08-07T14:24:08.631Z,17.60
2023-08-07T14:26:35.675Z,17.60
2023-08-07T14:29:02.634Z,18.00
2023-08-07T14:31:29.616Z,18.40
2023-08-07T14:33:57.639Z,18.80
2023-08-07T14:36:24.664Z,19.20
2023-08-07T14:38:51.785Z,19.60
2023-08-07T14:41:19.689Z,20.10
2023-08-07T14:43:47.773Z,20.70
2023-08-07T14:46:17.571Z,21.00
2023-08-07T14:48:44.672Z,21.00
2023-08-07T14:51:11.603Z,20.70
2023-08-07T14:53:38.589Z,20.50
2023-08-07T14:56:05.578Z,20.20
2023-08-07T14:58:33.836Z,20.20
2023-08-07T15:01:00.834Z,20.40
2023-08-07T15:03:27.928Z,22.00
2023-08-07T15:05:54.902Z,21.30
2023-08-07T15:08:21.862Z,21.80
2023-08-07T15:10:48.840Z,22.40
2023-08-07T15:13:15.780Z,22.90
2023-08-07T15:15:42.689Z,23.30
2023-08-07T15:18:09.659Z,23.50
2023-08-07T15:20:36.631Z,23.80
2023-08-07T15:23:04.287Z,24.10
2023-08-07T15:25:31.273Z,24.40
2023-08-07T15:28:01.372Z,24.50
2023-08-07T15:30:30.228Z,24.60
2023-08-07T15:32:57.409Z,24.60
2023-08-07T15:35:24.523Z,24.60
2023-08-07T15:37:51.596Z,24.60
2023-08-07T15:40:18.543Z,24.70
2023-08-07T15:42:46.846Z,24.70
2023-08-07T15:45:14.353Z,24.30
2023-08-07T15:47:41.522Z,23.70
2023-08-07T15:50:08.929Z,23.10
2023-08-07T15:52:35.859Z,22.40
2023-08-07T15:55:03.028Z,22.00
2023-08-07T15:57:30.006Z,21.40
2023-08-07T15:59:57.121Z,21.00
2023-08-07T16:02:24.077Z,20.80
2023-08-07T16:04:51.181Z,21.10
2023-08-07T16:07:18.150Z,21.70
2023-08-07T16:09:45.146Z,22.40
2023-08-07T16:12:12.151Z,22.90
2023-08-07T16:14:39.521Z,23.20
2023-08-07T16:17:06.682Z,23.50
2023-08-07T16:19:33.682Z,23.80
2023-08-07T16:22:00.729Z,24.10
2023-08-07T16:24:27.853Z,23.90
2023-08-07T16:26:54.849Z,23.40
2023-08-07T16:29:21.798Z,22.90
2023-08-07T16:31:48.868Z,22.70
2023-08-07T16:34:15.919Z,22.80
2023-08-07T16:36:42.955Z,22.80
2023-08-07T16:39:10.457Z,23.00
2023-08-07T16:41:37.525Z,22.90
2023-08-07T16:44:04.603Z,22.60
2023-08-07T16:46:33.442Z,22.20
2023-08-07T16:49:00.730Z,22.00
2023-08-07T16:51:27.826Z,22.30
2023-08-07T16:53:54.870Z,22.40
2023-08-07T16:56:21.870Z,22.10
2023-08-07T16:58:49.870Z,21.60
2023-08-07T17:01:17.330Z,21.20
2023-08-07T17:03:44.780Z,20.90
2023-08-07T17:06:11.862Z,20.60
2023-08-07T17:08:39.620Z,20.50
2023-08-07T17:11:06.647Z,20.20
2023-08-07T17:13:33.642Z,20.00
2023-08-07T17:16:00.692Z,19.60
2023-08-07T17:18:27.677Z,19.30
2023-08-07T17:20:54.639Z,19.00
2023-08-07T17:23:21.607Z,18.80
2023-08-07T17:25:48.532Z,18.50
2023-08-07T17:28:15.499Z,18.30
2023-08-07T17:30:42.482Z,18.10
2023-08-07T17:33:09.502Z,18.00
2023-08-07T17:35:36.652Z,17.80
2023-08-07T17:38:05.303Z,17.70
2023-08-07T17:40:32.316Z,17.60
2023-08-07T17:42:59.307Z,18.20
2023-08-07T17:45:26.382Z,17.50
2023-08-07T17:47:53.368Z,17.50
2023-08-07T17:50:20.375Z,18.20
2023-08-07T17:52:47.387Z,17.30
2023-08-07T17:55:16.382Z,17.20
2023-08-07T17:57:43.507Z,17.00
2023-08-07T18:00:11.341Z,16.90
2023-08-07T18:02:38.523Z,16.80
2023-08-07T18:05:06.952Z,17.40
2023-08-07T18:07:35.106Z,16.60
2023-08-07T18:10:02.678Z,16.50
2023-08-07T18:12:29.828Z,16.40
2023-08-07T18:14:58.107Z,16.40
2023-08-07T18:17:25.672Z,16.50
2023-08-07T18:19:52.881Z,16.20
2023-08-07T18:22:20.421Z,18.90
2023-08-07T18:24:49.338Z,16.20
2023-08-07T18:27:18.841Z,16.00
2023-08-07T18:29:46.078Z,15.90
2023-08-07T18:32:13.357Z,16.30
2023-08-07T18:34:40.323Z,15.60
2023-08-07T18:37:07.324Z,15.60
2023-08-07T18:39:34.365Z,15.40
2023-08-07T18:42:01.402Z,16.60
2023-08-07T18:44:28.400Z,15.40
2023-08-07T18:46:55.392Z,15.50
2023-08-07T18:49:22.614Z,14.90
2023-08-07T18:51:49.661Z,14.80
2023-08-07T18:54:16.914Z,15.30
2023-08-07T18:56:44.008Z,15.20
2023-08-07T18:59:11.008Z,14.40
2023-08-07T19:01:38.176Z,15.70
2023-08-07T19:04:05.674Z,14.20
2023-08-07T19:06:33.951Z,14.10
2023-08-07T19:09:01.151Z,14.00
2023-08-07T19:11:29.956Z,15.50
2023-08-07T19:13:58.804Z,15.00
2023-08-07T19:16:25.938Z,13.80
2023-08-07T19:18:53.092Z,13.60
2023-08-07T19:21:20.050Z,16.40
2023-08-07T19:23:47.032Z,16.40
2023-08-07T19:26:14.026Z,13.60
2023-08-07T19:28:41.129Z,15.40
2023-08-07T19:31:08.176Z,13.20
2023-08-07T19:33:35.263Z,15.40
2023-08-07T19:36:02.433Z,13.10
2023-08-07T19:38:29.466Z,13.00
2023-08-07T19:40:56.450Z,12.90
2023-08-07T19:43:24.533Z,14.40
2023-08-07T19:45:51.677Z,12.80
2023-08-07T19:48:18.907Z,14.00
2023-08-07T19:50:45.982Z,12.70
2023-08-07T19:53:12.984Z,14.00
2023-08-07T19:55:39.977Z,12.60
2023-08-07T19:58:07.407Z,14.40
2023-08-07T20:00:34.391Z,13.90
2023-08-07T20:03:01.740Z,12.40
2023-08-07T20:05:28.808Z,12.40
2023-08-07T20:07:55.807Z,12.40
2023-08-07T20:10:24.715Z,13.80
2023-08-07T20:12:52.210Z,14.80
2023-08-07T20:15:26.217Z,12.20
2023-08-07T20:17:56.000Z,12.20
2023-08-07T20:20:23.253Z,14.30
2023-08-07T20:22:50.283Z,12.10
2023-08-07T20:25:17.564Z,12.10
2023-08-07T20:27:44.550Z,14.30
2023-08-07T20:30:11.620Z,13.30
2023-08-07T20:32:38.832Z,12.00
2023-08-07T20:35:06.244Z,12.00
2023-08-07T20:37:33.326Z,11.90
2023-08-07T20:40:00.301Z,13.10
2023-08-07T20:42:27.370Z,13.70
2023-08-07T20:44:54.389Z,14.10
2023-08-07T20:47:21.339Z,11.90
2023-08-07T20:49:48.328Z,14.80
2023-08-07T20:52:15.998Z,14.80
2023-08-07T20:54:42.935Z,11.90
2023-08-07T20:57:09.954Z,13.60
2023-08-07T20:59:36.929Z,13.60
2023-08-07T21:02:04.128Z,13.30
2023-08-07T21:04:31.094Z,12.10
2023-08-07T21:06:58.116Z,12.60
2023-08-07T21:09:25.051Z,12.90
2023-08-07T21:11:53.636Z,12.10
2023-08-07T21:14:20.670Z,13.20
2023-08-07T21:16:47.649Z,13.40
2023-08-07T21:19:14.745Z,14.00
2023-08-07T21:21:41.774Z,12.50
2023-08-07T21:24:12.733Z,12.00
2023-08-07T21:26:43.139Z,11.90
2023-08-07T21:29:10.116Z,11.90
2023-08-07T21:31:37.114Z,14.00
2023-08-07T21:34:04.058Z,13.20
2023-08-07T21:36:31.132Z,11.80
2023-08-07T21:38:59.005Z,13.70
2023-08-07T21:41:27.279Z,11.70
2023-08-07T21:43:54.440Z,13.90
2023-08-07T21:46:24.392Z,11.70
2023-08-07T21:48:52.100Z,13.70
2023-08-07T21:51:19.161Z,11.60
2023-08-07T21:53:46.195Z,13.50
2023-08-07T21:56:13.118Z,11.50
2023-08-07T21:58:40.177Z,11.70
2023-08-07T22:01:07.152Z,14.10
2023-08-07T22:03:34.217Z,13.80
2023-08-07T22:06:01.252Z,13.00
2023-08-07T22:08:28.336Z,11.30
2023-08-07T22:10:55.396Z,11.40
2023-08-07T22:13:22.392Z,11.30
2023-08-07T22:15:50.514Z,11.30
2023-08-07T22:18:17.637Z,13.60
2023-08-07T22:20:44.640Z,11.30
2023-08-07T22:23:11.624Z,12.40
2023-08-07T22:25:38.713Z,12.00
2023-08-07T22:28:06.282Z,13.50
2023-08-07T22:30:33.308Z,11.30
2023-08-07T22:33:03.398Z,11.30
2023-08-07T22:35:31.114Z,12.30
2023-08-07T22:37:58.298Z,12.40
2023-08-07T22:40:25.276Z,11.20
2023-08-07T22:42:52.266Z,11.20
2023-08-07T22:45:19.324Z,12.00
2023-08-07T22:47:46.344Z,12.10
2023-08-07T22:50:13.455Z,11.20
2023-08-07T22:52:40.611Z,11.20
2023-08-07T22:55:08.376Z,11.20
2023-08-07T22:57:35.429Z,11.20
2023-08-07T23:00:02.547Z,11.20
2023-08-07T23:02:29.664Z,12.20
2023-08-07T23:04:56.639Z,11.20
2023-08-07T23:07:23.717Z,11.80
2023-08-07T23:09:50.679Z,11.10
2023-08-07T23:12:17.844Z,11.30
2023-08-07T23:14:44.943Z,12.70
2023-08-07T23:17:12.015Z,11.10
2023-08-07T23:19:38.954Z,11.10
2023-08-07T23:22:05.954Z,11.00
2023-08-07T23:24:32.968Z,11.00
2023-08-07T23:26:59.982Z,11.00
2023-08-07T23:29:27.020Z,11.90
2023-08-07T23:31:54.133Z,13.80
2023-08-07T23:34:21.286Z,11.00
2023-08-07T23:36:48.333Z,12.10
2023-08-07T23:39:16.491Z,11.00
2023-08-07T23:41:43.465Z,11.10
2023-08-07T23:44:10.458Z,11.00
2023-08-07T23:46:37.420Z,12.10
2023-08-07T23:49:04.446Z,11.70
2023-08-07T23:51:31.501Z,12.20
2023-08-07T23:53:58.485Z,14.10
2023-08-07T23:56:25.507Z,11.50
2023-08-07T23:58:52.480Z,13.90
